sensor_id;sensor_type;location;lat;lon;timestamp;P1;durP1;ratioP1;P2;durP2;ratioP2
71413;SDS011;59226;53.212;5.728;2023-05-07T00:01:09;10.80;;;3.93;;
71413;SDS011;59226;53.212;5.728;2023-05-07T00:03:35;10.13;;;4.82;;
71413;SDS011;59226;53.212;5.728;2023-05-07T00:06:01;10.93;;;4.77;;
71413;SDS011;59226;53.212;5.728;2023-05-07T00:08:26;9.73;;;4.50;;
71413;SDS011;59226;53.212;5.728;2023-05-07T00:10:52;11.17;;;4.20;;
71413;SDS011;59226;53.212;5.728;2023-05-07T00:13:17;9.10;;;4.00;;
71413;SDS011;59226;53.212;5.728;2023-05-07T00:15:42;8.43;;;3.67;;
71413;SDS011;59226;53.212;5.728;2023-05-07T00:18:07;8.50;;;4.10;;
71413;SDS011;59226;53.212;5.728;2023-05-07T00:20:32;8.83;;;4.00;;
71413;SDS011;59226;53.212;5.728;2023-05-07T00:22:58;7.77;;;4.20;;
71413;SDS011;59226;53.212;5.728;2023-05-07T00:25:23;8.07;;;3.47;;
71413;SDS011;59226;53.212;5.728;2023-05-07T00:27:48;9.73;;;4.23;;
71413;SDS011;59226;53.212;5.728;2023-05-07T00:30:13;8.03;;;4.03;;
71413;SDS011;59226;53.212;5.728;2023-05-07T00:32:39;9.00;;;4.43;;
71413;SDS011;59226;53.212;5.728;2023-05-07T00:35:05;7.20;;;3.88;;
71413;SDS011;59226;53.212;5.728;2023-05-07T00:37:30;12.83;;;3.83;;
71413;SDS011;59226;53.212;5.728;2023-05-07T00:39:56;9.73;;;4.03;;
71413;SDS011;59226;53.212;5.728;2023-05-07T00:42:21;9.15;;;3.42;;
71413;SDS011;59226;53.212;5.728;2023-05-07T00:44:47;9.90;;;3.17;;
71413;SDS011;59226;53.212;5.728;2023-05-07T00:47:12;8.53;;;3.83;;
71413;SDS011;59226;53.212;5.728;2023-05-07T00:49:41;7.05;;;3.22;;
71413;SDS011;59226;53.212;5.728;2023-05-07T00:52:07;8.33;;;4.07;;
71413;SDS011;59226;53.212;5.728;2023-05-07T00:54:33;9.07;;;4.07;;
71413;SDS011;59226;53.212;5.728;2023-05-07T00:56:59;8.70;;;4.18;;
71413;SDS011;59226;53.212;5.728;2023-05-07T00:59:24;9.90;;;4.80;;
71413;SDS011;59226;53.212;5.728;2023-05-07T01:01:49;10.07;;;4.97;;
71413;SDS011;59226;53.212;5.728;2023-05-07T01:04:15;8.63;;;3.97;;
71413;SDS011;59226;53.212;5.728;2023-05-07T01:06:40;10.00;;;4.17;;
71413;SDS011;59226;53.212;5.728;2023-05-07T01:09:05;7.57;;;3.90;;
71413;SDS011;59226;53.212;5.728;2023-05-07T01:11:31;7.72;;;3.67;;
71413;SDS011;59226;53.212;5.728;2023-05-07T01:13:56;9.87;;;4.80;;
71413;SDS011;59226;53.212;5.728;2023-05-07T01:16:22;11.05;;;4.43;;
71413;SDS011;59226;53.212;5.728;2023-05-07T01:18:47;8.77;;;4.20;;
71413;SDS011;59226;53.212;5.728;2023-05-07T01:21:13;7.57;;;3.80;;
71413;SDS011;59226;53.212;5.728;2023-05-07T01:23:40;7.78;;;4.53;;
71413;SDS011;59226;53.212;5.728;2023-05-07T01:26:06;8.40;;;3.55;;
71413;SDS011;59226;53.212;5.728;2023-05-07T01:28:31;7.30;;;3.60;;
71413;SDS011;59226;53.212;5.728;2023-05-07T01:30:59;9.43;;;4.60;;
71413;SDS011;59226;53.212;5.728;2023-05-07T01:33:26;8.30;;;4.25;;
71413;SDS011;59226;53.212;5.728;2023-05-07T01:35:52;10.40;;;4.87;;
71413;SDS011;59226;53.212;5.728;2023-05-07T01:38:18;11.10;;;3.97;;
71413;SDS011;59226;53.212;5.728;2023-05-07T01:40:43;8.50;;;3.77;;
71413;SDS011;59226;53.212;5.728;2023-05-07T01:43:09;7.40;;;4.30;;
71413;SDS011;59226;53.212;5.728;2023-05-07T01:45:34;8.10;;;3.70;;
71413;SDS011;59226;53.212;5.728;2023-05-07T01:48:00;8.17;;;4.07;;
71413;SDS011;59226;53.212;5.728;2023-05-07T01:50:25;7.68;;;3.67;;
71413;SDS011;59226;53.212;5.728;2023-05-07T01:52:51;8.07;;;3.97;;
71413;SDS011;59226;53.212;5.728;2023-05-07T01:55:16;8.33;;;3.93;;
71413;SDS011;59226;53.212;5.728;2023-05-07T01:57:42;14.13;;;4.63;;
71413;SDS011;59226;53.212;5.728;2023-05-07T02:00:07;8.07;;;3.92;;
71413;SDS011;59226;53.212;5.728;2023-05-07T02:02:34;9.50;;;3.80;;
71413;SDS011;59226;53.212;5.728;2023-05-07T02:04:59;10.20;;;4.10;;
71413;SDS011;59226;53.212;5.728;2023-05-07T02:07:25;9.23;;;4.35;;
71413;SDS011;59226;53.212;5.728;2023-05-07T02:09:50;7.83;;;4.10;;
71413;SDS011;59226;53.212;5.728;2023-05-07T02:12:15;10.43;;;5.20;;
71413;SDS011;59226;53.212;5.728;2023-05-07T02:14:41;11.20;;;5.57;;
71413;SDS011;59226;53.212;5.728;2023-05-07T02:17:06;11.60;;;4.57;;
71413;SDS011;59226;53.212;5.728;2023-05-07T02:19:32;8.27;;;4.13;;
71413;SDS011;59226;53.212;5.728;2023-05-07T02:21:57;10.27;;;5.00;;
71413;SDS011;59226;53.212;5.728;2023-05-07T02:24:22;9.80;;;5.20;;
71413;SDS011;59226;53.212;5.728;2023-05-07T02:26:48;9.67;;;4.77;;
71413;SDS011;59226;53.212;5.728;2023-05-07T02:29:13;9.13;;;5.07;;
71413;SDS011;59226;53.212;5.728;2023-05-07T02:31:38;8.93;;;5.00;;
71413;SDS011;59226;53.212;5.728;2023-05-07T02:34:03;8.77;;;4.07;;
71413;SDS011;59226;53.212;5.728;2023-05-07T02:36:28;11.23;;;4.67;;
71413;SDS011;59226;53.212;5.728;2023-05-07T02:38:54;13.43;;;5.83;;
71413;SDS011;59226;53.212;5.728;2023-05-07T02:41:19;9.83;;;5.00;;
71413;SDS011;59226;53.212;5.728;2023-05-07T02:43:45;10.80;;;5.03;;
71413;SDS011;59226;53.212;5.728;2023-05-07T02:46:10;10.30;;;5.10;;
71413;SDS011;59226;53.212;5.728;2023-05-07T02:48:36;11.30;;;5.23;;
71413;SDS011;59226;53.212;5.728;2023-05-07T02:51:01;8.77;;;5.07;;
71413;SDS011;59226;53.212;5.728;2023-05-07T02:53:27;11.32;;;6.07;;
71413;SDS011;59226;53.212;5.728;2023-05-07T02:55:53;9.47;;;5.30;;
71413;SDS011;59226;53.212;5.728;2023-05-07T02:58:18;12.20;;;4.88;;
71413;SDS011;59226;53.212;5.728;2023-05-07T03:00:43;10.77;;;4.70;;
71413;SDS011;59226;53.212;5.728;2023-05-07T03:03:08;11.53;;;5.53;;
71413;SDS011;59226;53.212;5.728;2023-05-07T03:05:33;9.80;;;5.23;;
71413;SDS011;59226;53.212;5.728;2023-05-07T03:07:59;10.13;;;5.30;;
71413;SDS011;59226;53.212;5.728;2023-05-07T03:10:24;8.93;;;4.63;;
71413;SDS011;59226;53.212;5.728;2023-05-07T03:12:49;16.37;;;6.10;;
71413;SDS011;59226;53.212;5.728;2023-05-07T03:15:14;12.97;;;4.83;;
71413;SDS011;59226;53.212;5.728;2023-05-07T03:17:40;11.60;;;4.90;;
71413;SDS011;59226;53.212;5.728;2023-05-07T03:20:05;13.23;;;5.20;;
71413;SDS011;59226;53.212;5.728;2023-05-07T03:22:30;13.03;;;5.90;;
71413;SDS011;59226;53.212;5.728;2023-05-07T03:24:56;14.03;;;6.40;;
71413;SDS011;59226;53.212;5.728;2023-05-07T03:27:21;10.15;;;5.13;;
71413;SDS011;59226;53.212;5.728;2023-05-07T03:29:46;12.50;;;4.87;;
71413;SDS011;59226;53.212;5.728;2023-05-07T03:32:11;11.00;;;5.00;;
71413;SDS011;59226;53.212;5.728;2023-05-07T03:34:37;10.23;;;5.00;;
71413;SDS011;59226;53.212;5.728;2023-05-07T03:37:02;12.10;;;5.43;;
71413;SDS011;59226;53.212;5.728;2023-05-07T03:39:27;12.47;;;4.83;;
71413;SDS011;59226;53.212;5.728;2023-05-07T03:41:52;12.73;;;5.40;;
71413;SDS011;59226;53.212;5.728;2023-05-07T03:44:18;13.47;;;5.57;;
71413;SDS011;59226;53.212;5.728;2023-05-07T03:46:43;8.17;;;4.30;;
71413;SDS011;59226;53.212;5.728;2023-05-07T03:49:08;13.07;;;6.33;;
71413;SDS011;59226;53.212;5.728;2023-05-07T03:51:33;13.83;;;5.60;;
71413;SDS011;59226;53.212;5.728;2023-05-07T03:53:58;10.83;;;4.37;;
71413;SDS011;59226;53.212;5.728;2023-05-07T03:56:24;11.30;;;5.67;;
71413;SDS011;59226;53.212;5.728;2023-05-07T03:58:51;12.05;;;6.05;;
71413;SDS011;59226;53.212;5.728;2023-05-07T04:01:16;11.00;;;5.67;;
71413;SDS011;59226;53.212;5.728;2023-05-07T04:03:42;10.83;;;5.17;;
71413;SDS011;59226;53.212;5.728;2023-05-07T04:06:07;11.70;;;5.37;;
71413;SDS011;59226;53.212;5.728;2023-05-07T04:08:32;13.63;;;6.27;;
71413;SDS011;59226;53.212;5.728;2023-05-07T04:10:58;14.60;;;5.93;;
71413;SDS011;59226;53.212;5.728;2023-05-07T04:13:23;13.68;;;5.90;;
71413;SDS011;59226;53.212;5.728;2023-05-07T04:15:48;10.80;;;5.40;;
71413;SDS011;59226;53.212;5.728;2023-05-07T04:18:14;12.00;;;5.13;;
71413;SDS011;59226;53.212;5.728;2023-05-07T04:20:39;12.30;;;5.63;;
71413;SDS011;59226;53.212;5.728;2023-05-07T04:23:04;11.70;;;5.70;;
71413;SDS011;59226;53.212;5.728;2023-05-07T04:25:30;10.00;;;5.73;;
71413;SDS011;59226;53.212;5.728;2023-05-07T04:27:55;11.83;;;5.57;;
71413;SDS011;59226;53.212;5.728;2023-05-07T04:30:20;16.53;;;5.70;;
71413;SDS011;59226;53.212;5.728;2023-05-07T04:32:46;10.60;;;6.13;;
71413;SDS011;59226;53.212;5.728;2023-05-07T04:35:11;11.87;;;5.20;;
71413;SDS011;59226;53.212;5.728;2023-05-07T04:37:36;13.10;;;6.03;;
71413;SDS011;59226;53.212;5.728;2023-05-07T04:40:01;13.67;;;5.30;;
71413;SDS011;59226;53.212;5.728;2023-05-07T04:42:27;13.27;;;5.88;;
71413;SDS011;59226;53.212;5.728;2023-05-07T04:44:53;12.30;;;5.77;;
71413;SDS011;59226;53.212;5.728;2023-05-07T04:47:18;9.30;;;5.10;;
71413;SDS011;59226;53.212;5.728;2023-05-07T04:49:43;13.13;;;5.30;;
71413;SDS011;59226;53.212;5.728;2023-05-07T04:52:09;13.02;;;5.88;;
71413;SDS011;59226;53.212;5.728;2023-05-07T04:54:34;10.77;;;5.43;;
71413;SDS011;59226;53.212;5.728;2023-05-07T04:57:00;11.47;;;6.17;;
71413;SDS011;59226;53.212;5.728;2023-05-07T04:59:25;10.93;;;6.07;;
71413;SDS011;59226;53.212;5.728;2023-05-07T05:01:50;17.53;;;7.63;;
71413;SDS011;59226;53.212;5.728;2023-05-07T05:04:15;12.17;;;5.60;;
71413;SDS011;59226;53.212;5.728;2023-05-07T05:06:41;13.27;;;6.40;;
71413;SDS011;59226;53.212;5.728;2023-05-07T05:09:06;11.83;;;6.03;;
71413;SDS011;59226;53.212;5.728;2023-05-07T05:11:31;16.70;;;6.47;;
71413;SDS011;59226;53.212;5.728;2023-05-07T05:13:58;15.37;;;7.17;;
71413;SDS011;59226;53.212;5.728;2023-05-07T05:16:23;13.98;;;7.13;;
71413;SDS011;59226;53.212;5.728;2023-05-07T05:18:49;12.77;;;6.43;;
71413;SDS011;59226;53.212;5.728;2023-05-07T05:21:14;15.00;;;6.47;;
71413;SDS011;59226;53.212;5.728;2023-05-07T05:23:39;13.80;;;6.77;;
71413;SDS011;59226;53.212;5.728;2023-05-07T05:26:04;14.97;;;5.23;;
71413;SDS011;59226;53.212;5.728;2023-05-07T05:28:30;13.27;;;6.37;;
71413;SDS011;59226;53.212;5.728;2023-05-07T05:30:55;13.93;;;7.10;;
71413;SDS011;59226;53.212;5.728;2023-05-07T05:33:20;14.80;;;7.10;;
71413;SDS011;59226;53.212;5.728;2023-05-07T05:35:45;14.13;;;7.60;;
71413;SDS011;59226;53.212;5.728;2023-05-07T05:38:11;12.07;;;5.97;;
71413;SDS011;59226;53.212;5.728;2023-05-07T05:40:36;16.47;;;7.03;;
71413;SDS011;59226;53.212;5.728;2023-05-07T05:43:01;12.93;;;6.37;;
71413;SDS011;59226;53.212;5.728;2023-05-07T05:45:26;16.40;;;6.00;;
71413;SDS011;59226;53.212;5.728;2023-05-07T05:47:52;14.90;;;7.93;;
71413;SDS011;59226;53.212;5.728;2023-05-07T05:50:17;21.30;;;7.13;;
71413;SDS011;59226;53.212;5.728;2023-05-07T05:52:42;15.70;;;7.60;;
71413;SDS011;59226;53.212;5.728;2023-05-07T05:55:08;13.00;;;6.37;;
71413;SDS011;59226;53.212;5.728;2023-05-07T05:57:33;14.47;;;7.73;;
71413;SDS011;59226;53.212;5.728;2023-05-07T05:59:59;15.87;;;7.70;;
71413;SDS011;59226;53.212;5.728;2023-05-07T06:02:25;19.10;;;8.10;;
71413;SDS011;59226;53.212;5.728;2023-05-07T06:04:50;15.13;;;7.07;;
71413;SDS011;59226;53.212;5.728;2023-05-07T06:07:15;16.57;;;6.20;;
71413;SDS011;59226;53.212;5.728;2023-05-07T06:09:40;16.93;;;7.83;;
71413;SDS011;59226;53.212;5.728;2023-05-07T06:12:05;15.40;;;8.87;;
71413;SDS011;59226;53.212;5.728;2023-05-07T06:14:31;18.23;;;7.50;;
71413;SDS011;59226;53.212;5.728;2023-05-07T06:16:56;15.27;;;6.43;;
71413;SDS011;59226;53.212;5.728;2023-05-07T06:19:21;16.63;;;7.28;;
71413;SDS011;59226;53.212;5.728;2023-05-07T06:21:48;13.65;;;6.70;;
71413;SDS011;59226;53.212;5.728;2023-05-07T06:24:14;14.03;;;6.20;;
71413;SDS011;59226;53.212;5.728;2023-05-07T06:26:39;16.80;;;8.30;;
71413;SDS011;59226;53.212;5.728;2023-05-07T06:29:05;12.47;;;6.37;;
71413;SDS011;59226;53.212;5.728;2023-05-07T06:31:30;14.48;;;7.97;;
71413;SDS011;59226;53.212;5.728;2023-05-07T06:33:56;13.82;;;7.07;;
71413;SDS011;59226;53.212;5.728;2023-05-07T06:36:22;15.67;;;6.57;;
71413;SDS011;59226;53.212;5.728;2023-05-07T06:38:47;13.97;;;6.80;;
71413;SDS011;59226;53.212;5.728;2023-05-07T06:41:12;11.80;;;5.10;;
71413;SDS011;59226;53.212;5.728;2023-05-07T06:43:37;15.40;;;7.03;;
71413;SDS011;59226;53.212;5.728;2023-05-07T06:46:03;13.73;;;6.50;;
71413;SDS011;59226;53.212;5.728;2023-05-07T06:48:28;15.43;;;6.10;;
71413;SDS011;59226;53.212;5.728;2023-05-07T06:50:53;14.57;;;7.10;;
71413;SDS011;59226;53.212;5.728;2023-05-07T06:53:20;14.48;;;6.80;;
71413;SDS011;59226;53.212;5.728;2023-05-07T06:55:45;13.20;;;7.17;;
71413;SDS011;59226;53.212;5.728;2023-05-07T06:58:11;17.07;;;7.77;;
71413;SDS011;59226;53.212;5.728;2023-05-07T07:00:36;15.87;;;7.07;;
71413;SDS011;59226;53.212;5.728;2023-05-07T07:03:01;13.10;;;6.60;;
71413;SDS011;59226;53.212;5.728;2023-05-07T07:05:26;15.40;;;6.73;;
71413;SDS011;59226;53.212;5.728;2023-05-07T07:07:52;13.67;;;7.43;;
71413;SDS011;59226;53.212;5.728;2023-05-07T07:10:20;12.73;;;6.72;;
71413;SDS011;59226;53.212;5.728;2023-05-07T07:12:45;11.90;;;6.40;;
71413;SDS011;59226;53.212;5.728;2023-05-07T07:15:10;15.27;;;6.90;;
71413;SDS011;59226;53.212;5.728;2023-05-07T07:17:36;13.20;;;7.43;;
71413;SDS011;59226;53.212;5.728;2023-05-07T07:20:01;15.98;;;6.85;;
71413;SDS011;59226;53.212;5.728;2023-05-07T07:22:27;12.47;;;6.23;;
71413;SDS011;59226;53.212;5.728;2023-05-07T07:24:53;11.57;;;5.50;;
71413;SDS011;59226;53.212;5.728;2023-05-07T07:27:18;14.20;;;7.27;;
71413;SDS011;59226;53.212;5.728;2023-05-07T07:29:43;13.57;;;6.67;;
71413;SDS011;59226;53.212;5.728;2023-05-07T07:32:08;15.83;;;6.77;;
71413;SDS011;59226;53.212;5.728;2023-05-07T07:34:33;11.40;;;5.47;;
71413;SDS011;59226;53.212;5.728;2023-05-07T07:36:59;13.43;;;6.97;;
71413;SDS011;59226;53.212;5.728;2023-05-07T07:39:30;16.02;;;6.25;;
71413;SDS011;59226;53.212;5.728;2023-05-07T07:41:55;11.33;;;5.93;;
71413;SDS011;59226;53.212;5.728;2023-05-07T07:44:21;13.10;;;6.07;;
71413;SDS011;59226;53.212;5.728;2023-05-07T07:46:46;12.53;;;6.30;;
71413;SDS011;59226;53.212;5.728;2023-05-07T07:49:11;15.00;;;6.67;;
71413;SDS011;59226;53.212;5.728;2023-05-07T07:51:36;11.67;;;6.50;;
71413;SDS011;59226;53.212;5.728;2023-05-07T07:54:02;11.17;;;5.80;;
71413;SDS011;59226;53.212;5.728;2023-05-07T07:56:27;15.50;;;6.18;;
71413;SDS011;59226;53.212;5.728;2023-05-07T07:58:53;15.67;;;6.80;;
71413;SDS011;59226;53.212;5.728;2023-05-07T08:01:18;10.40;;;5.47;;
71413;SDS011;59226;53.212;5.728;2023-05-07T08:03:43;11.10;;;5.67;;
71413;SDS011;59226;53.212;5.728;2023-05-07T08:06:08;11.23;;;5.57;;
71413;SDS011;59226;53.212;5.728;2023-05-07T08:08:34;14.00;;;6.23;;
71413;SDS011;59226;53.212;5.728;2023-05-07T08:10:59;11.37;;;6.30;;
71413;SDS011;59226;53.212;5.728;2023-05-07T08:13:24;11.40;;;5.43;;
71413;SDS011;59226;53.212;5.728;2023-05-07T08:15:49;13.52;;;5.65;;
71413;SDS011;59226;53.212;5.728;2023-05-07T08:18:15;12.20;;;5.40;;
71413;SDS011;59226;53.212;5.728;2023-05-07T08:20:40;13.53;;;5.67;;
71413;SDS011;59226;53.212;5.728;2023-05-07T08:23:06;11.93;;;5.15;;
71413;SDS011;59226;53.212;5.728;2023-05-07T08:25:33;11.90;;;6.13;;
71413;SDS011;59226;53.212;5.728;2023-05-07T08:27:58;14.23;;;6.00;;
71413;SDS011;59226;53.212;5.728;2023-05-07T08:30:23;10.00;;;4.83;;
71413;SDS011;59226;53.212;5.728;2023-05-07T08:32:48;12.03;;;5.23;;
71413;SDS011;59226;53.212;5.728;2023-05-07T08:35:14;10.03;;;5.37;;
71413;SDS011;59226;53.212;5.728;2023-05-07T08:37:39;11.43;;;5.17;;
71413;SDS011;59226;53.212;5.728;2023-05-07T08:40:04;12.63;;;5.70;;
71413;SDS011;59226;53.212;5.728;2023-05-07T08:42:31;9.60;;;5.45;;
71413;SDS011;59226;53.212;5.728;2023-05-07T08:44:57;10.70;;;5.23;;
71413;SDS011;59226;53.212;5.728;2023-05-07T08:47:22;9.88;;;5.10;;
71413;SDS011;59226;53.212;5.728;2023-05-07T08:49:48;25.33;;;5.55;;
71413;SDS011;59226;53.212;5.728;2023-05-07T08:52:14;11.93;;;6.10;;
71413;SDS011;59226;53.212;5.728;2023-05-07T08:54:39;10.80;;;6.40;;
71413;SDS011;59226;53.212;5.728;2023-05-07T08:57:05;11.43;;;5.20;;
71413;SDS011;59226;53.212;5.728;2023-05-07T08:59:30;14.13;;;5.03;;
71413;SDS011;59226;53.212;5.728;2023-05-07T09:01:56;14.57;;;6.63;;
71413;SDS011;59226;53.212;5.728;2023-05-07T09:04:21;9.53;;;5.43;;
71413;SDS011;59226;53.212;5.728;2023-05-07T09:06:46;14.67;;;5.97;;
71413;SDS011;59226;53.212;5.728;2023-05-07T09:09:14;12.00;;;5.50;;
71413;SDS011;59226;53.212;5.728;2023-05-07T09:11:39;11.05;;;5.15;;
71413;SDS011;59226;53.212;5.728;2023-05-07T09:14:05;11.73;;;6.17;;
71413;SDS011;59226;53.212;5.728;2023-05-07T09:16:30;9.03;;;4.87;;
71413;SDS011;59226;53.212;5.728;2023-05-07T09:18:57;13.73;;;5.83;;
71413;SDS011;59226;53.212;5.728;2023-05-07T09:21:22;11.15;;;4.80;;
71413;SDS011;59226;53.212;5.728;2023-05-07T09:23:51;12.27;;;5.43;;
71413;SDS011;59226;53.212;5.728;2023-05-07T09:26:17;9.93;;;4.88;;
71413;SDS011;59226;53.212;5.728;2023-05-07T09:28:42;13.90;;;7.20;;
71413;SDS011;59226;53.212;5.728;2023-05-07T09:31:08;9.57;;;5.35;;
71413;SDS011;59226;53.212;5.728;2023-05-07T09:33:34;13.68;;;6.15;;
71413;SDS011;59226;53.212;5.728;2023-05-07T09:36:02;10.77;;;5.47;;
71413;SDS011;59226;53.212;5.728;2023-05-07T09:38:27;13.30;;;5.57;;
71413;SDS011;59226;53.212;5.728;2023-05-07T09:41:09;9.90;;;4.70;;
71413;SDS011;59226;53.212;5.728;2023-05-07T09:43:35;9.82;;;4.55;;
71413;SDS011;59226;53.212;5.728;2023-05-07T09:46:09;12.10;;;5.97;;
71413;SDS011;59226;53.212;5.728;2023-05-07T09:48:41;11.75;;;4.90;;
71413;SDS011;59226;53.212;5.728;2023-05-07T09:51:15;11.93;;;5.35;;
71413;SDS011;59226;53.212;5.728;2023-05-07T09:53:42;13.60;;;5.22;;
71413;SDS011;59226;53.212;5.728;2023-05-07T09:56:08;9.93;;;5.20;;
71413;SDS011;59226;53.212;5.728;2023-05-07T09:58:33;15.18;;;6.47;;
71413;SDS011;59226;53.212;5.728;2023-05-07T10:01:02;12.37;;;6.17;;
71413;SDS011;59226;53.212;5.728;2023-05-07T10:03:27;11.95;;;6.10;;
71413;SDS011;59226;53.212;5.728;2023-05-07T10:05:54;13.75;;;5.95;;
71413;SDS011;59226;53.212;5.728;2023-05-07T10:08:19;12.13;;;5.17;;
71413;SDS011;59226;53.212;5.728;2023-05-07T10:10:44;14.83;;;6.63;;
71413;SDS011;59226;53.212;5.728;2023-05-07T10:13:10;10.80;;;5.73;;
71413;SDS011;59226;53.212;5.728;2023-05-07T10:15:36;10.55;;;5.55;;
71413;SDS011;59226;53.212;5.728;2023-05-07T10:18:02;14.97;;;6.47;;
71413;SDS011;59226;53.212;5.728;2023-05-07T10:20:28;10.77;;;5.57;;
71413;SDS011;59226;53.212;5.728;2023-05-07T10:22:53;11.27;;;5.97;;
71413;SDS011;59226;53.212;5.728;2023-05-07T10:25:21;14.02;;;5.90;;
71413;SDS011;59226;53.212;5.728;2023-05-07T10:27:47;12.10;;;6.23;;
71413;SDS011;59226;53.212;5.728;2023-05-07T10:30:26;16.05;;;5.70;;
71413;SDS011;59226;53.212;5.728;2023-05-07T10:32:53;12.55;;;5.38;;
71413;SDS011;59226;53.212;5.728;2023-05-07T10:35:21;13.25;;;6.28;;
71413;SDS011;59226;53.212;5.728;2023-05-07T10:37:47;13.88;;;5.93;;
71413;SDS011;59226;53.212;5.728;2023-05-07T10:40:13;10.73;;;5.83;;
71413;SDS011;59226;53.212;5.728;2023-05-07T10:42:38;13.33;;;6.27;;
71413;SDS011;59226;53.212;5.728;2023-05-07T10:45:13;9.80;;;5.23;;
71413;SDS011;59226;53.212;5.728;2023-05-07T10:48:05;12.98;;;5.53;;
71413;SDS011;59226;53.212;5.728;2023-05-07T10:50:24;11.77;;;5.65;;
71413;SDS011;59226;53.212;5.728;2023-05-07T10:55:33;10.43;;;5.15;;
71413;SDS011;59226;53.212;5.728;2023-05-07T10:58:14;14.37;;;5.80;;
71413;SDS011;59226;53.212;5.728;2023-05-07T11:00:44;10.25;;;4.68;;
71413;SDS011;59226;53.212;5.728;2023-05-07T11:03:09;11.33;;;5.53;;
71413;SDS011;59226;53.212;5.728;2023-05-07T11:05:35;10.60;;;5.25;;
71413;SDS011;59226;53.212;5.728;2023-05-07T11:08:01;13.00;;;6.27;;
71413;SDS011;59226;53.212;5.728;2023-05-07T11:10:48;11.70;;;6.63;;
71413;SDS011;59226;53.212;5.728;2023-05-07T11:13:12;10.73;;;5.80;;
71413;SDS011;59226;53.212;5.728;2023-05-07T11:15:38;11.30;;;6.03;;
71413;SDS011;59226;53.212;5.728;2023-05-07T11:18:03;13.63;;;6.10;;
71413;SDS011;59226;53.212;5.728;2023-05-07T11:20:45;9.55;;;4.57;;
71413;SDS011;59226;53.212;5.728;2023-05-07T11:26:13;14.73;;;5.93;;
71413;SDS011;59226;53.212;5.728;2023-05-07T11:28:39;14.90;;;6.50;;
71413;SDS011;59226;53.212;5.728;2023-05-07T11:31:05;17.65;;;6.22;;
71413;SDS011;59226;53.212;5.728;2023-05-07T11:33:30;13.37;;;6.03;;
71413;SDS011;59226;53.212;5.728;2023-05-07T11:35:56;13.27;;;5.83;;
71413;SDS011;59226;53.212;5.728;2023-05-07T11:38:22;13.57;;;6.03;;
71413;SDS011;59226;53.212;5.728;2023-05-07T11:40:50;12.67;;;6.33;;
71413;SDS011;59226;53.212;5.728;2023-05-07T11:43:16;11.05;;;5.45;;
71413;SDS011;59226;53.212;5.728;2023-05-07T11:45:41;11.43;;;5.47;;
71413;SDS011;59226;53.212;5.728;2023-05-07T11:48:07;12.07;;;5.53;;
71413;SDS011;59226;53.212;5.728;2023-05-07T11:50:32;14.03;;;6.20;;
71413;SDS011;59226;53.212;5.728;2023-05-07T11:52:57;16.87;;;7.03;;
71413;SDS011;59226;53.212;5.728;2023-05-07T11:55:23;10.50;;;5.93;;
71413;SDS011;59226;53.212;5.728;2023-05-07T11:57:49;13.33;;;5.07;;
71413;SDS011;59226;53.212;5.728;2023-05-07T12:00:15;12.88;;;6.28;;
71413;SDS011;59226;53.212;5.728;2023-05-07T12:02:41;11.27;;;5.70;;
71413;SDS011;59226;53.212;5.728;2023-05-07T12:05:07;18.50;;;6.28;;
71413;SDS011;59226;53.212;5.728;2023-05-07T12:07:33;10.70;;;4.87;;
71413;SDS011;59226;53.212;5.728;2023-05-07T12:09:58;10.27;;;5.05;;
71413;SDS011;59226;53.212;5.728;2023-05-07T12:12:23;10.90;;;4.90;;
71413;SDS011;59226;53.212;5.728;2023-05-07T12:14:49;13.10;;;5.60;;
71413;SDS011;59226;53.212;5.728;2023-05-07T12:17:14;12.20;;;5.70;;
71413;SDS011;59226;53.212;5.728;2023-05-07T12:19:40;11.80;;;6.05;;
71413;SDS011;59226;53.212;5.728;2023-05-07T12:22:09;12.25;;;5.68;;
71413;SDS011;59226;53.212;5.728;2023-05-07T12:24:45;11.13;;;5.70;;
71413;SDS011;59226;53.212;5.728;2023-05-07T12:27:10;10.32;;;5.88;;
71413;SDS011;59226;53.212;5.728;2023-05-07T12:29:36;10.13;;;4.53;;
71413;SDS011;59226;53.212;5.728;2023-05-07T12:32:04;9.90;;;5.07;;
71413;SDS011;59226;53.212;5.728;2023-05-07T12:34:31;10.85;;;5.57;;
71413;SDS011;59226;53.212;5.728;2023-05-07T12:36:56;10.50;;;4.80;;
71413;SDS011;59226;53.212;5.728;2023-05-07T12:39:21;13.20;;;6.73;;
71413;SDS011;59226;53.212;5.728;2023-05-07T12:41:56;11.23;;;5.23;;
71413;SDS011;59226;53.212;5.728;2023-05-07T12:44:23;13.40;;;5.73;;
71413;SDS011;59226;53.212;5.728;2023-05-07T12:46:49;10.65;;;5.20;;
71413;SDS011;59226;53.212;5.728;2023-05-07T12:49:14;10.40;;;4.97;;
71413;SDS011;59226;53.212;5.728;2023-05-07T12:51:39;10.40;;;5.30;;
71413;SDS011;59226;53.212;5.728;2023-05-07T12:54:05;11.90;;;5.20;;
71413;SDS011;59226;53.212;5.728;2023-05-07T12:56:31;8.77;;;4.70;;
71413;SDS011;59226;53.212;5.728;2023-05-07T12:58:59;10.25;;;5.57;;
71413;SDS011;59226;53.212;5.728;2023-05-07T13:01:28;11.02;;;4.55;;
71413;SDS011;59226;53.212;5.728;2023-05-07T13:03:54;9.43;;;4.78;;
71413;SDS011;59226;53.212;5.728;2023-05-07T13:06:19;8.20;;;4.43;;
71413;SDS011;59226;53.212;5.728;2023-05-07T13:08:44;11.40;;;5.00;;
71413;SDS011;59226;53.212;5.728;2023-05-07T13:11:10;9.57;;;4.93;;
71413;SDS011;59226;53.212;5.728;2023-05-07T13:13:36;8.85;;;4.35;;
71413;SDS011;59226;53.212;5.728;2023-05-07T13:16:02;8.13;;;4.27;;
71413;SDS011;59226;53.212;5.728;2023-05-07T13:18:29;11.07;;;5.05;;
71413;SDS011;59226;53.212;5.728;2023-05-07T13:20:54;10.38;;;4.35;;
71413;SDS011;59226;53.212;5.728;2023-05-07T13:23:19;9.23;;;4.70;;
71413;SDS011;59226;53.212;5.728;2023-05-07T13:25:45;11.23;;;5.07;;
71413;SDS011;59226;53.212;5.728;2023-05-07T13:28:10;12.07;;;5.40;;
71413;SDS011;59226;53.212;5.728;2023-05-07T13:30:35;9.67;;;4.50;;
71413;SDS011;59226;53.212;5.728;2023-05-07T13:33:01;8.57;;;4.73;;
71413;SDS011;59226;53.212;5.728;2023-05-07T13:35:26;9.80;;;4.27;;
71413;SDS011;59226;53.212;5.728;2023-05-07T13:37:52;10.23;;;4.43;;
71413;SDS011;59226;53.212;5.728;2023-05-07T13:40:17;8.40;;;4.10;;
71413;SDS011;59226;53.212;5.728;2023-05-07T13:42:43;9.50;;;5.15;;
71413;SDS011;59226;53.212;5.728;2023-05-07T13:45:08;9.67;;;4.30;;
71413;SDS011;59226;53.212;5.728;2023-05-07T13:47:34;9.38;;;4.88;;
71413;SDS011;59226;53.212;5.728;2023-05-07T13:49:59;10.57;;;4.97;;
71413;SDS011;59226;53.212;5.728;2023-05-07T13:52:24;9.57;;;5.10;;
71413;SDS011;59226;53.212;5.728;2023-05-07T13:54:50;7.13;;;3.85;;
71413;SDS011;59226;53.212;5.728;2023-05-07T13:57:17;11.15;;;4.53;;
71413;SDS011;59226;53.212;5.728;2023-05-07T13:59:42;9.93;;;4.67;;
71413;SDS011;59226;53.212;5.728;2023-05-07T14:02:07;9.37;;;4.43;;
71413;SDS011;59226;53.212;5.728;2023-05-07T14:04:34;9.50;;;3.63;;
71413;SDS011;59226;53.212;5.728;2023-05-07T14:06:59;8.38;;;4.32;;
71413;SDS011;59226;53.212;5.728;2023-05-07T14:09:25;10.87;;;5.03;;
71413;SDS011;59226;53.212;5.728;2023-05-07T14:11:50;12.40;;;5.10;;
71413;SDS011;59226;53.212;5.728;2023-05-07T14:14:17;11.57;;;5.30;;
71413;SDS011;59226;53.212;5.728;2023-05-07T14:16:42;8.80;;;4.50;;
71413;SDS011;59226;53.212;5.728;2023-05-07T14:19:07;10.83;;;4.40;;
71413;SDS011;59226;53.212;5.728;2023-05-07T14:21:32;8.90;;;4.37;;
71413;SDS011;59226;53.212;5.728;2023-05-07T14:23:58;9.67;;;4.77;;
71413;SDS011;59226;53.212;5.728;2023-05-07T14:26:23;8.27;;;4.70;;
71413;SDS011;59226;53.212;5.728;2023-05-07T14:28:48;11.70;;;4.57;;
71413;SDS011;59226;53.212;5.728;2023-05-07T14:31:14;12.20;;;4.78;;
71413;SDS011;59226;53.212;5.728;2023-05-07T14:33:39;8.53;;;4.73;;
71413;SDS011;59226;53.212;5.728;2023-05-07T14:36:05;8.07;;;4.50;;